createdAt,value
2019-05-01T00:00:16.344Z,100254.98
2019-05-01T00:01:08.796Z,100254.98
2019-05-01T00:02:05.782Z,100257.13
2019-05-01T00:03:03.491Z,100256.93
2019-05-01T00:04:09.320Z,100249.27
2019-05-01T00:05:03.605Z,100249.27
2019-05-01T00:05:42.027Z,100254.03
2019-05-01T00:06:22.282Z,100254.42
2019-05-01T00:07:00.052Z,100251.64
2019-05-01T00:07:36.719Z,100248.42
2019-05-01T00:08:12.667Z,100240.51
2019-05-01T00:08:48.465Z,100245.52
2019-05-01T00:09:24.941Z,100249.52
2019-05-01T00:10:01.057Z,100242.80
2019-05-01T00:10:37.063Z,100249.47
2019-05-01T00:11:12.523Z,100251.55
2019-05-01T00:11:48.150Z,100251.55
2019-05-01T00:12:23.694Z,100243.44
2019-05-01T00:12:59.572Z,100245.19
2019-05-01T00:13:35.389Z,100235.67
2019-05-01T00:14:11.880Z,100236.97
2019-05-01T00:14:47.774Z,100236.97
2019-05-01T00:15:25.843Z,100244.28
2019-05-01T00:16:01.340Z,100244.03
2019-05-01T00:16:36.810Z,100238.85
2019-05-01T00:17:13.034Z,100231.95
2019-05-01T00:17:48.805Z,100231.95
2019-05-01T00:18:24.408Z,100235.55
2019-05-01T00:19:00.018Z,100235.55
2019-05-01T00:19:35.774Z,100237.69
2019-05-01T00:20:11.632Z,100236.58
2019-05-01T00:20:47.214Z,100236.58
2019-05-01T00:21:22.820Z,100237.48
2019-05-01T00:21:58.262Z,100234.39
2019-05-01T00:22:33.813Z,100234.39
2019-05-01T00:23:09.287Z,100234.44
2019-05-01T00:23:44.836Z,100236.58
2019-05-01T00:24:20.629Z,100233.20
2019-05-01T00:24:56.471Z,100231.85
2019-05-01T00:25:31.936Z,100233.25
2019-05-01T00:26:07.475Z,100225.17
2019-05-01T00:26:43.707Z,100225.17
2019-05-01T00:27:19.428Z,100230.41
2019-05-01T00:27:55.294Z,100232.50
2019-05-01T00:28:30.898Z,100231.65
2019-05-01T00:29:06.488Z,100227.08
2019-05-01T00:29:41.953Z,100227.08
2019-05-01T00:30:29.878Z,100231.59
2019-05-01T00:30:57.309Z,100234.30
2019-05-01T00:31:32.853Z,100227.48
2019-05-01T00:32:08.511Z,100230.06
2019-05-01T00:32:44.118Z,100232.09
2019-05-01T00:33:19.671Z,100229.91
2019-05-01T00:33:55.153Z,100231.20
2019-05-01T00:34:30.681Z,100226.08
2019-05-01T00:35:06.137Z,100231.20
2019-05-01T00:35:41.621Z,100228.47
2019-05-01T00:36:17.081Z,100229.45
2019-05-01T00:36:52.965Z,100224.78
2019-05-01T00:37:28.804Z,100223.48
2019-05-01T00:38:04.284Z,100230.11
2019-05-01T00:38:40.125Z,100226.67
2019-05-01T00:39:16.928Z,100227.13
2019-05-01T00:39:52.533Z,100221.55
2019-05-01T00:40:28.020Z,100217.20
2019-05-01T00:41:03.521Z,100217.20
2019-05-01T00:41:39.083Z,100220.16
2019-05-01T00:42:14.966Z,100224.63
2019-05-01T00:42:50.487Z,100229.97
2019-05-01T00:43:26.004Z,100190.47
2019-05-01T00:44:02.261Z,100225.88
2019-05-01T00:44:37.846Z,100226.38
2019-05-01T00:45:13.621Z,100227.02
2019-05-01T00:45:49.379Z,100227.02
2019-05-01T00:46:24.910Z,100225.46
2019-05-01T00:47:00.529Z,100225.06
2019-05-01T00:47:36.100Z,100219.49
2019-05-01T00:48:11.821Z,100225.96
2019-05-01T00:48:47.612Z,100224.66
2019-05-01T00:49:23.264Z,100226.02
2019-05-01T00:49:59.515Z,100232.22
2019-05-01T00:50:35.726Z,100227.86
2019-05-01T00:51:11.315Z,100220.78
2019-05-01T00:51:46.805Z,100222.37
2019-05-01T00:52:22.975Z,100224.91
2019-05-01T00:52:58.946Z,100230.53
2019-05-01T00:53:34.401Z,100227.05
2019-05-01T00:54:09.904Z,100224.66
2019-05-01T00:54:47.929Z,100225.41
2019-05-01T00:55:41.192Z,100228.49
2019-05-01T00:56:38.645Z,100222.87
2019-05-01T00:57:27.431Z,100220.58
2019-05-01T00:58:20.781Z,100220.84
2019-05-01T00:59:21.251Z,100224.27
2019-05-01T01:00:09.039Z,100222.98
2019-05-01T01:01:00.597Z,100221.13
2019-05-01T01:01:54.092Z,100215.73
2019-05-01T01:02:36.482Z,100221.23
2019-05-01T01:03:11.944Z,100216.98
2019-05-01T01:03:47.511Z,100221.36
2019-05-01T01:04:23.796Z,100213.84
2019-05-01T01:04:59.804Z,100218.64
2019-05-01T01:05:35.327Z,100217.34
2019-05-01T01:06:11.183Z,100212.80
2019-05-01T01:06:46.644Z,100213.66
2019-05-01T01:07:22.237Z,100210.88
2019-05-01T01:07:57.700Z,100214.89
2019-05-01T01:08:33.472Z,100209.42
2019-05-01T01:09:09.407Z,100215.62
2019-05-01T01:09:45.424Z,100213.59
2019-05-01T01:10:20.894Z,100209.50
2019-05-01T01:10:56.454Z,100216.58
2019-05-01T01:11:31.918Z,100214.61
2019-05-01T01:12:07.389Z,100218.50
2019-05-01T01:12:43.557Z,100212.63
2019-05-01T01:13:19.105Z,100216.17
2019-05-01T01:13:54.666Z,100218.31
2019-05-01T01:14:30.608Z,100214.84
2019-05-01T01:15:07.162Z,100214.84
2019-05-01T01:15:42.615Z,100211.81
2019-05-01T01:16:18.438Z,100215.30
2019-05-01T01:16:54.016Z,100215.84
2019-05-01T01:17:29.523Z,100210.27
2019-05-01T01:18:05.317Z,100215.49
2019-05-01T01:18:41.068Z,100215.12
2019-05-01T01:19:16.543Z,100211.30
2019-05-01T01:19:52.152Z,100214.33
2019-05-01T01:20:27.664Z,100214.59
2019-05-01T01:21:03.117Z,100210.41
2019-05-01T01:21:38.939Z,100215.97
2019-05-01T01:22:14.990Z,100207.87
2019-05-01T01:22:50.707Z,100210.50
2019-05-01T01:23:26.930Z,100214.55
2019-05-01T01:24:04.686Z,100202.52
2019-05-01T01:24:40.163Z,100214.47
2019-05-01T01:25:16.263Z,100204.66
2019-05-01T01:25:51.821Z,100206.85
2019-05-01T01:26:27.308Z,100208.19
2019-05-01T01:27:03.298Z,100209.83
2019-05-01T01:27:39.344Z,100212.73
2019-05-01T01:28:14.798Z,100210.95
2019-05-01T01:28:50.384Z,100203.69
2019-05-01T01:29:26.313Z,100212.81
2019-05-01T01:30:02.188Z,100210.78
2019-05-01T01:30:38.021Z,100206.55
2019-05-01T01:31:13.562Z,100212.11
2019-05-01T01:31:49.045Z,100211.13
2019-05-01T01:32:24.801Z,100211.13
2019-05-01T01:33:00.427Z,100205.70
2019-05-01T01:33:36.153Z,100212.02
2019-05-01T01:34:11.617Z,100205.95
2019-05-01T01:34:47.073Z,100202.58
2019-05-01T01:35:23.033Z,100206.41
2019-05-01T01:35:58.879Z,100210.28
2019-05-01T01:36:34.337Z,100210.28
2019-05-01T01:37:09.864Z,100210.42
2019-05-01T01:37:45.637Z,100198.45
2019-05-01T01:38:21.582Z,100198.45
2019-05-01T01:38:57.139Z,100209.13
2019-05-01T01:39:33.050Z,100205.35
2019-05-01T01:40:08.985Z,100209.67
2019-05-01T01:40:44.933Z,100206.87
2019-05-01T01:41:22.669Z,100208.51
2019-05-01T01:41:58.258Z,100202.23
2019-05-01T01:42:33.921Z,100210.60
2019-05-01T01:43:27.208Z,100201.95
2019-05-01T01:44:28.438Z,100201.73
2019-05-01T01:45:41.375Z,100204.41
2019-05-01T01:46:19.193Z,100206.50
2019-05-01T01:46:55.729Z,100206.20
2019-05-01T01:47:31.614Z,100198.73
2019-05-01T01:48:12.449Z,100206.03
2019-05-01T01:48:48.802Z,100195.31
2019-05-01T01:49:24.339Z,100198.57
2019-05-01T01:50:00.381Z,100199.78
2019-05-01T01:50:35.975Z,100196.87
2019-05-01T01:51:12.105Z,100200.47
2019-05-01T01:51:47.558Z,100199.25
2019-05-01T01:52:23.850Z,100191.55
2019-05-01T01:52:59.477Z,100192.04
2019-05-01T01:53:34.954Z,100192.71
2019-05-01T01:54:10.853Z,100199.25
2019-05-01T01:54:46.871Z,100188.96
2019-05-01T01:55:22.976Z,100189.41
2019-05-01T01:55:58.684Z,100190.80
2019-05-01T01:56:34.624Z,100190.80
2019-05-01T01:57:10.285Z,100196.31
2019-05-01T01:57:46.251Z,100184.64
2019-05-01T01:58:23.181Z,100191.50
2019-05-01T01:58:59.942Z,100193.67
2019-05-01T01:59:35.923Z,100193.32
2019-05-01T02:00:13.072Z,100191.31
2019-05-01T02:01:09.731Z,100188.79
2019-05-01T02:02:06.290Z,100185.76
2019-05-01T02:02:48.231Z,100188.79
2019-05-01T02:03:24.637Z,100195.83
2019-05-01T02:04:04.394Z,100196.81
2019-05-01T02:04:57.904Z,100191.32
2019-05-01T02:05:36.763Z,100189.63
2019-05-01T02:06:12.754Z,100193.64
2019-05-01T02:06:49.822Z,100189.36
2019-05-01T02:07:25.645Z,100191.05
2019-05-01T02:08:01.424Z,100192.53
2019-05-01T02:08:36.874Z,100193.06
2019-05-01T02:09:12.751Z,100191.46
2019-05-01T02:09:48.243Z,100190.22
2019-05-01T02:10:23.974Z,100191.62
2019-05-01T02:10:59.861Z,100189.00
2019-05-01T02:11:35.414Z,100187.89
2019-05-01T02:12:11.156Z,100194.80
2019-05-01T02:12:46.899Z,100193.50
2019-05-01T02:13:22.387Z,100189.10
2019-05-01T02:13:59.028Z,100187.05
2019-05-01T02:14:34.515Z,100188.03
2019-05-01T02:15:10.574Z,100190.03
2019-05-01T02:15:46.349Z,100191.99
2019-05-01T02:16:22.270Z,100190.08
2019-05-01T02:16:57.760Z,100189.55
2019-05-01T02:17:33.226Z,100197.52
2019-05-01T02:18:08.786Z,100190.43
2019-05-01T02:18:44.549Z,100193.59
2019-05-01T02:19:20.982Z,100194.08
2019-05-01T02:19:56.740Z,100200.48
2019-05-01T02:20:32.787Z,100195.06
2019-05-01T02:21:08.275Z,100193.33
2019-05-01T02:21:43.726Z,100186.68
2019-05-01T02:22:19.180Z,100188.55
2019-05-01T02:22:55.034Z,100188.23
2019-05-01T02:23:30.917Z,100195.02
2019-05-01T02:24:06.350Z,100192.11
2019-05-01T02:24:41.777Z,100189.84
2019-05-01T02:25:17.601Z,100189.13
2019-05-01T02:25:53.548Z,100192.16
2019-05-01T02:26:31.336Z,100187.50
2019-05-01T02:27:11.466Z,100186.73
2019-05-01T02:28:06.635Z,100186.16
2019-05-01T02:28:58.395Z,100185.17
2019-05-01T02:29:39.899Z,100184.73
2019-05-01T02:30:16.672Z,100183.20
2019-05-01T02:31:08.102Z,100182.94
2019-05-01T02:31:46.721Z,100182.14
2019-05-01T02:32:24.571Z,100189.17
2019-05-01T02:33:00.781Z,100183.95
2019-05-01T02:33:37.368Z,100179.48
2019-05-01T02:34:13.338Z,100183.70
2019-05-01T02:34:49.815Z,100181.66
2019-05-01T02:35:30.229Z,100184.23
2019-05-01T02:36:04.975Z,100177.90
2019-05-01T02:36:41.522Z,100180.13
2019-05-01T02:37:18.369Z,100179.37
2019-05-01T02:37:55.171Z,100176.84
2019-05-01T02:38:32.920Z,100178.61
2019-05-01T02:39:10.559Z,100182.22
2019-05-01T02:39:49.258Z,100177.45
2019-05-01T02:40:56.515Z,100174.91
2019-05-01T02:41:35.731Z,100174.51
2019-05-01T02:42:14.601Z,100180.16
2019-05-01T02:42:51.789Z,100171.84
2019-05-01T02:43:30.886Z,100175.66
2019-05-01T02:44:10.789Z,100176.65
2019-05-01T02:44:49.685Z,100179.05
2019-05-01T02:45:26.830Z,100172.41
2019-05-01T02:46:05.147Z,100175.44
2019-05-01T02:46:42.939Z,100175.95
2019-05-01T02:47:26.285Z,100173.63
2019-05-01T02:48:02.465Z,100170.72
2019-05-01T02:48:41.624Z,100174.68
2019-05-01T02:49:25.278Z,100172.98
2019-05-01T02:50:06.152Z,100174.27
2019-05-01T02:50:43.020Z,100174.51
2019-05-01T02:51:20.809Z,100180.83
2019-05-01T02:51:56.678Z,100176.61
2019-05-01T02:52:35.276Z,100172.97
2019-05-01T02:53:11.095Z,100176.53
2019-05-01T02:53:48.344Z,100176.47
2019-05-01T02:54:24.158Z,100169.56
2019-05-01T02:55:03.416Z,100177.14
2019-05-01T02:55:44.969Z,100174.87
2019-05-01T02:56:44.551Z,100164.66
2019-05-01T02:57:24.723Z,100172.45
2019-05-01T02:58:01.172Z,100170.61
2019-05-01T02:58:37.168Z,100163.48
2019-05-01T02:59:13.863Z,100163.48
2019-05-01T02:59:52.742Z,100169.28
2019-05-01T03:00:28.970Z,100167.14
2019-05-01T03:01:04.492Z,100164.11
2019-05-01T03:01:46.890Z,100162.06
2019-05-01T03:02:19.131Z,100165.61
2019-05-01T03:02:54.856Z,100166.73
2019-05-01T03:03:30.366Z,100170.30
2019-05-01T03:04:07.272Z,100168.69
2019-05-01T03:04:44.050Z,100167.52
2019-05-01T03:05:19.571Z,100171.47
2019-05-01T03:05:55.133Z,100162.92
2019-05-01T03:06:32.823Z,100169.01
2019-05-01T03:07:10.181Z,100165.89
2019-05-01T03:07:46.408Z,100161.78
2019-05-01T03:08:22.477Z,100165.30
2019-05-01T03:08:59.787Z,100162.91
2019-05-01T03:09:36.340Z,100169.41
2019-05-01T03:10:12.689Z,100164.02
2019-05-01T03:10:48.137Z,100162.52
2019-05-01T03:11:23.782Z,100167.20
2019-05-01T03:12:00.465Z,100164.22
2019-05-01T03:12:39.308Z,100160.83
2019-05-01T03:13:15.273Z,100162.03
2019-05-01T03:13:52.923Z,100164.09
2019-05-01T03:14:31.392Z,100164.22
2019-05-01T03:15:07.176Z,100167.92
2019-05-01T03:15:42.988Z,100161.91
2019-05-01T03:16:19.804Z,100154.29
2019-05-01T03:16:59.215Z,100162.31
2019-05-01T03:18:02.844Z,100160.58
2019-05-01T03:18:43.014Z,100162.48
2019-05-01T03:19:26.058Z,100164.02
2019-05-01T03:20:20.185Z,100155.91
2019-05-01T03:21:10.253Z,100155.58
2019-05-01T03:22:04.528Z,100154.97
2019-05-01T03:22:47.840Z,100159.45
2019-05-01T03:23:46.463Z,100162.11
2019-05-01T03:24:24.485Z,100163.92
2019-05-01T03:25:01.236Z,100162.44
2019-05-01T03:25:37.003Z,100163.71
2019-05-01T03:26:12.674Z,100164.75
2019-05-01T03:26:48.197Z,100166.20
2019-05-01T03:27:24.011Z,100164.25
2019-05-01T03:27:59.836Z,100161.91
2019-05-01T03:28:35.542Z,100166.98
2019-05-01T03:29:11.989Z,100169.22
2019-05-01T03:29:47.560Z,100164.30
2019-05-01T03:30:24.050Z,100167.23
2019-05-01T03:30:59.780Z,100168.78
2019-05-01T03:31:35.970Z,100163.22
2019-05-01T03:32:18.637Z,100167.45
2019-05-01T03:32:48.973Z,100169.50
2019-05-01T03:33:24.879Z,100160.79
2019-05-01T03:34:00.462Z,100163.97
2019-05-01T03:34:36.124Z,100170.62
2019-05-01T03:35:11.678Z,100162.13
2019-05-01T03:35:47.131Z,100159.26
2019-05-01T03:36:23.582Z,100159.30
2019-05-01T03:37:00.197Z,100168.22
2019-05-01T03:37:36.791Z,100167.33
2019-05-01T03:38:13.586Z,100171.72
2019-05-01T03:38:49.076Z,100168.82
2019-05-01T03:39:25.328Z,100172.81
2019-05-01T03:40:00.829Z,100170.59
2019-05-01T03:40:37.453Z,100170.59
2019-05-01T03:41:13.543Z,100170.31
2019-05-01T03:41:49.735Z,100162.70
2019-05-01T03:42:26.362Z,100164.34
2019-05-01T03:43:02.382Z,100169.91
2019-05-01T03:43:37.852Z,100169.55
2019-05-01T03:44:13.517Z,100165.68
2019-05-01T03:44:48.970Z,100168.22
2019-05-01T03:45:25.395Z,100168.70
2019-05-01T03:46:00.913Z,100167.29
2019-05-01T03:46:37.200Z,100157.41
2019-05-01T03:47:12.866Z,100162.86
2019-05-01T03:47:49.015Z,100148.34
2019-05-01T03:48:26.179Z,100151.36
2019-05-01T03:49:02.069Z,100148.34
2019-05-01T03:49:38.546Z,100148.34
2019-05-01T03:50:14.302Z,100149.23
2019-05-01T03:50:49.977Z,100154.23
2019-05-01T03:51:25.930Z,100152.09
2019-05-01T03:52:02.390Z,100151.69
2019-05-01T03:52:38.619Z,100154.75
2019-05-01T03:53:14.660Z,100147.77
2019-05-01T03:53:50.276Z,100155.03
2019-05-01T03:54:26.176Z,100155.03
2019-05-01T03:55:02.004Z,100154.67
2019-05-01T03:55:37.960Z,100150.80
2019-05-01T03:56:14.360Z,100150.80
2019-05-01T03:56:50.110Z,100152.36
2019-05-01T03:57:26.027Z,100152.36
2019-05-01T03:58:01.838Z,100150.80
2019-05-01T03:58:37.800Z,100153.38
2019-05-01T03:59:13.330Z,100152.16
2019-05-01T03:59:49.065Z,100153.90
2019-05-01T04:00:35.821Z,100155.56
2019-05-01T04:01:29.296Z,100156.03
2019-05-01T04:02:31.755Z,100155.56
2019-05-01T04:03:08.551Z,100154.63
2019-05-01T04:03:56.112Z,100155.08
2019-05-01T04:04:32.340Z,100156.08
2019-05-01T04:05:07.912Z,100156.08
2019-05-01T04:05:44.502Z,100145.80
2019-05-01T04:06:21.116Z,100141.69
2019-05-01T04:06:56.973Z,100141.69
2019-05-01T04:07:36.219Z,100140.40
2019-05-01T04:08:10.299Z,100149.71
2019-05-01T04:08:46.681Z,100144.27
2019-05-01T04:09:23.102Z,100150.64
2019-05-01T04:09:59.181Z,100141.73
2019-05-01T04:10:34.637Z,100141.73
2019-05-01T04:11:10.510Z,100151.41
2019-05-01T04:11:46.869Z,100151.41
2019-05-01T04:12:23.233Z,100152.78
2019-05-01T04:12:59.085Z,100149.31
2019-05-01T04:13:34.733Z,100151.00
2019-05-01T04:14:11.006Z,100144.19
2019-05-01T04:14:47.058Z,100147.94
2019-05-01T04:15:22.859Z,100147.94
2019-05-01T04:15:58.828Z,100150.92
2019-05-01T04:16:34.951Z,100151.36
2019-05-01T04:17:20.181Z,100151.36
2019-05-01T04:18:32.177Z,100150.88
2019-05-01T04:19:08.232Z,100150.88
2019-05-01T04:19:44.528Z,100150.62
2019-05-01T04:20:20.165Z,100150.62
2019-05-01T04:20:56.532Z,100149.47
2019-05-01T04:21:38.948Z,100155.27
2019-05-01T04:22:15.012Z,100155.27
2019-05-01T04:22:50.968Z,100156.75
2019-05-01T04:23:26.703Z,100156.75
2019-05-01T04:24:02.841Z,100155.14
2019-05-01T04:24:38.296Z,100153.64
2019-05-01T04:25:14.469Z,100153.64
2019-05-01T04:25:50.232Z,100151.06
2019-05-01T04:26:26.226Z,100157.91
2019-05-01T04:27:02.877Z,100146.19
2019-05-01T04:27:41.502Z,100146.19
2019-05-01T04:28:33.381Z,100146.10
2019-05-01T04:29:30.845Z,100146.95
2019-05-01T04:30:17.454Z,100158.31
2019-05-01T04:31:05.544Z,100152.75
2019-05-01T04:31:45.703Z,100152.75
2019-05-01T04:32:24.030Z,100161.17
2019-05-01T04:33:01.876Z,100161.17
2019-05-01T04:33:38.165Z,100161.34
2019-05-01T04:34:31.731Z,100161.34
2019-05-01T04:35:26.814Z,100154.93
2019-05-01T04:36:08.032Z,100154.93
2019-05-01T04:36:46.047Z,100159.92
2019-05-01T04:37:22.160Z,100162.47
2019-05-01T04:37:58.996Z,100159.16
2019-05-01T04:38:35.482Z,100159.97
2019-05-01T04:39:11.447Z,100163.03
2019-05-01T04:39:47.455Z,100162.95
2019-05-01T04:40:23.648Z,100161.22
2019-05-01T04:40:59.167Z,100156.17
2019-05-01T04:41:35.974Z,100156.17
2019-05-01T04:42:12.424Z,100167.14
2019-05-01T04:42:48.021Z,100157.17
2019-05-01T04:43:23.592Z,100167.86
2019-05-01T04:43:59.414Z,100156.81
2019-05-01T04:44:34.904Z,100162.70
2019-05-01T04:45:10.646Z,100165.69
2019-05-01T04:45:46.651Z,100163.45
2019-05-01T04:46:22.131Z,100166.48
2019-05-01T04:46:58.812Z,100159.94
2019-05-01T04:47:34.891Z,100161.11
2019-05-01T04:48:10.594Z,100164.98
2019-05-01T04:48:46.050Z,100170.15
2019-05-01T04:49:21.536Z,100165.47
2019-05-01T04:49:57.508Z,100162.89
2019-05-01T04:50:32.988Z,100165.83
2019-05-01T04:51:09.433Z,100164.53
2019-05-01T04:51:46.791Z,100166.27
2019-05-01T04:52:22.526Z,100167.47
2019-05-01T04:52:59.152Z,100167.47
2019-05-01T04:53:35.772Z,100166.63
2019-05-01T04:54:11.220Z,100167.43
2019-05-01T04:54:47.312Z,100170.73
2019-05-01T04:55:23.905Z,100170.73
2019-05-01T04:56:00.035Z,100171.13
2019-05-01T04:56:35.479Z,100171.67
2019-05-01T04:57:11.139Z,100169.58
2019-05-01T04:57:47.086Z,100172.61
2019-05-01T04:58:22.697Z,100171.77
2019-05-01T04:58:58.587Z,100176.61
2019-05-01T04:59:34.507Z,100171.77
2019-05-01T05:00:10.099Z,100174.25
2019-05-01T05:00:45.571Z,100170.83
2019-05-01T05:01:21.318Z,100177.16
2019-05-01T05:01:59.048Z,100174.70
2019-05-01T05:02:43.799Z,100173.86
2019-05-01T05:03:20.528Z,100176.80
2019-05-01T05:03:56.267Z,100172.08
2019-05-01T05:04:32.257Z,100175.95
2019-05-01T05:05:08.225Z,100178.41
2019-05-01T05:05:44.384Z,100172.31
2019-05-01T05:06:21.162Z,100172.48
2019-05-01T05:06:56.889Z,100173.14
2019-05-01T05:07:32.843Z,100171.86
2019-05-01T05:08:08.293Z,100175.38
2019-05-01T05:08:44.053Z,100176.72
2019-05-01T05:09:21.373Z,100166.06
2019-05-01T05:09:57.228Z,100178.09
2019-05-01T05:10:33.304Z,100171.27
2019-05-01T05:11:14.052Z,100171.27
2019-05-01T05:11:55.218Z,100177.96
2019-05-01T05:12:50.098Z,100169.22
2019-05-01T05:13:27.909Z,100169.22
2019-05-01T05:14:14.681Z,100172.66
2019-05-01T05:14:53.916Z,100176.27
2019-05-01T05:15:50.184Z,100177.16
2019-05-01T05:16:51.892Z,100179.56
2019-05-01T05:17:27.896Z,100182.59
2019-05-01T05:18:04.136Z,100182.59
2019-05-01T05:18:39.942Z,100179.56
2019-05-01T05:19:16.174Z,100178.66
2019-05-01T05:19:51.805Z,100177.30
2019-05-01T05:20:28.239Z,100181.52
2019-05-01T05:21:03.823Z,100181.92
2019-05-01T05:21:39.257Z,100179.34
2019-05-01T05:22:16.637Z,100177.42
2019-05-01T05:22:52.805Z,100182.05
2019-05-01T05:23:28.405Z,100182.38
2019-05-01T05:24:04.053Z,100175.15
2019-05-01T05:24:39.783Z,100178.98
2019-05-01T05:25:15.573Z,100178.98
2019-05-01T05:25:51.831Z,100178.45
2019-05-01T05:26:27.823Z,100185.20
2019-05-01T05:27:03.760Z,100184.36
2019-05-01T05:27:40.831Z,100175.75
2019-05-01T05:28:16.864Z,100179.86
2019-05-01T05:28:53.202Z,100184.00
2019-05-01T05:29:29.348Z,100183.06
2019-05-01T05:30:05.336Z,100185.25
2019-05-01T05:30:44.245Z,100185.64
2019-05-01T05:31:23.104Z,100187.73
2019-05-01T05:32:01.297Z,100188.63
2019-05-01T05:32:39.845Z,100185.42
2019-05-01T05:33:18.985Z,100188.80
2019-05-01T05:33:56.210Z,100182.97
2019-05-01T05:34:32.710Z,100183.45
2019-05-01T05:35:09.565Z,100185.48
2019-05-01T05:35:46.986Z,100180.81
2019-05-01T05:36:25.857Z,100180.81
2019-05-01T05:37:09.331Z,100189.27
2019-05-01T05:38:05.496Z,100186.16
2019-05-01T05:38:54.055Z,100189.20
2019-05-01T05:39:35.752Z,100187.06
2019-05-01T05:40:11.611Z,100185.77
2019-05-01T05:40:47.572Z,100187.91
2019-05-01T05:41:24.056Z,100188.25
2019-05-01T05:42:01.406Z,100190.37
2019-05-01T05:42:37.919Z,100189.13
2019-05-01T05:43:13.515Z,100193.45
2019-05-01T05:43:50.216Z,100188.73
2019-05-01T05:44:26.665Z,100186.54
2019-05-01T05:45:03.198Z,100189.52
2019-05-01T05:45:38.922Z,100183.41
2019-05-01T05:46:14.728Z,100191.72
2019-05-01T05:46:50.553Z,100187.49
2019-05-01T05:47:26.928Z,100193.45
2019-05-01T05:48:02.623Z,100190.53
2019-05-01T05:48:38.186Z,100190.44
2019-05-01T05:49:14.209Z,100188.05
2019-05-01T05:49:49.633Z,100188.05
2019-05-01T05:50:27.236Z,100192.08
2019-05-01T05:51:21.849Z,100192.37
2019-05-01T05:52:11.686Z,100193.37
2019-05-01T05:52:54.036Z,100192.27
2019-05-01T05:53:33.818Z,100194.22
2019-05-01T05:54:28.572Z,100197.41
2019-05-01T05:55:25.303Z,100198.20
2019-05-01T05:56:05.335Z,100197.05
2019-05-01T05:56:49.186Z,100194.17
2019-05-01T05:57:33.442Z,100193.63
2019-05-01T05:58:21.024Z,100197.79
2019-05-01T05:59:01.387Z,100197.79
2019-05-01T05:59:41.795Z,100198.55
2019-05-01T06:00:42.368Z,100194.11
2019-05-01T06:01:33.799Z,100197.74
2019-05-01T06:02:30.673Z,100196.64
2019-05-01T06:03:31.357Z,100198.68
2019-05-01T06:04:26.646Z,100198.68
2019-05-01T06:05:30.781Z,100189.86
2019-05-01T06:06:24.477Z,100187.13
2019-05-01T06:07:08.451Z,100192.26
2019-05-01T06:08:05.222Z,100193.16
2019-05-01T06:08:44.035Z,100188.68
2019-05-01T06:09:24.652Z,100187.42
2019-05-01T06:10:10.653Z,100190.66
2019-05-01T06:11:10.362Z,100193.58
2019-05-01T06:11:59.739Z,100192.87
2019-05-01T06:12:46.777Z,100187.19
2019-05-01T06:13:42.216Z,100185.08
2019-05-01T06:14:45.344Z,100186.63
2019-05-01T06:15:43.752Z,100186.63
2019-05-01T06:16:31.488Z,100186.84
2019-05-01T06:17:13.471Z,100190.45
2019-05-01T06:17:59.173Z,100184.91
2019-05-01T06:18:41.216Z,100188.45
2019-05-01T06:19:51.094Z,100180.03
2019-05-01T06:20:45.571Z,100187.70
2019-05-01T06:21:34.771Z,100186.33
2019-05-01T06:22:28.904Z,100186.67
2019-05-01T06:23:24.002Z,100185.43
2019-05-01T06:24:08.459Z,100189.63
2019-05-01T06:24:46.404Z,100190.02
2019-05-01T06:25:27.462Z,100179.66
2019-05-01T06:26:22.739Z,100193.33
2019-05-01T06:26:58.797Z,100185.22
2019-05-01T06:27:35.706Z,100180.76
2019-05-01T06:28:11.903Z,100188.63
2019-05-01T06:28:47.355Z,100186.37
2019-05-01T06:29:23.596Z,100188.19
2019-05-01T06:30:00.851Z,100178.98
2019-05-01T06:30:36.926Z,100190.89
2019-05-01T06:31:23.216Z,100188.45
2019-05-01T06:31:58.840Z,100190.19
2019-05-01T06:32:33.494Z,100191.38
2019-05-01T06:33:11.287Z,100198.83
2019-05-01T06:33:48.571Z,100196.09
2019-05-01T06:34:28.626Z,100195.89
2019-05-01T06:35:04.479Z,100194.75
2019-05-01T06:35:40.461Z,100192.80
2019-05-01T06:36:17.030Z,100192.80
2019-05-01T06:36:52.519Z,100188.16
2019-05-01T06:37:55.995Z,100191.66
2019-05-01T06:38:31.620Z,100193.00
2019-05-01T06:39:11.994Z,100191.31
2019-05-01T06:39:48.141Z,100194.13
2019-05-01T06:40:38.105Z,100196.15
2019-05-01T06:41:14.931Z,100192.59
2019-05-01T06:41:51.726Z,100194.85
2019-05-01T06:42:27.718Z,100190.11
2019-05-01T06:43:03.645Z,100194.53
2019-05-01T06:44:07.387Z,100188.53
2019-05-01T06:45:01.775Z,100185.21
2019-05-01T06:45:40.486Z,100184.17
2019-05-01T06:46:31.451Z,100188.69
2019-05-01T06:47:18.738Z,100194.53
2019-05-01T06:48:02.093Z,100192.67
2019-05-01T06:48:39.015Z,100187.95
2019-05-01T06:49:31.018Z,100188.00
2019-05-01T06:50:24.747Z,100192.94
2019-05-01T06:51:19.508Z,100189.44
2019-05-01T06:51:56.626Z,100194.53
2019-05-01T06:52:34.454Z,100192.58
2019-05-01T06:53:10.234Z,100195.08
2019-05-01T06:53:46.508Z,100189.53
2019-05-01T06:54:24.070Z,100192.94
2019-05-01T06:55:00.678Z,100195.53
2019-05-01T06:55:37.078Z,100192.59
2019-05-01T06:56:12.862Z,100195.44
2019-05-01T06:56:49.922Z,100190.93
2019-05-01T06:57:27.276Z,100196.09
2019-05-01T06:58:03.346Z,100186.74
2019-05-01T06:58:39.251Z,100190.61
2019-05-01T06:59:17.215Z,100188.33
2019-05-01T06:59:52.922Z,100192.78
2019-05-01T07:00:28.733Z,100191.77
2019-05-01T07:01:04.228Z,100190.38
2019-05-01T07:01:40.554Z,100184.08
2019-05-01T07:02:18.188Z,100189.37
2019-05-01T07:02:56.156Z,100190.05
2019-05-01T07:03:31.702Z,100187.23
2019-05-01T07:04:07.852Z,100191.73
2019-05-01T07:04:44.534Z,100187.67
2019-05-01T07:05:23.266Z,100194.07
2019-05-01T07:05:58.916Z,100192.12
2019-05-01T07:06:35.083Z,100184.84
2019-05-01T07:07:24.692Z,100182.64
2019-05-01T07:07:53.267Z,100189.42
2019-05-01T07:08:29.464Z,100188.45
2019-05-01T07:09:07.020Z,100188.52
2019-05-01T07:09:49.361Z,100190.35
2019-05-01T07:10:30.816Z,100192.06
2019-05-01T07:11:00.272Z,100180.82
2019-05-01T07:11:36.438Z,100189.78
2019-05-01T07:12:18.394Z,100184.28
2019-05-01T07:12:54.509Z,100187.34
2019-05-01T07:13:35.540Z,100185.15
2019-05-01T07:14:11.153Z,100185.91
2019-05-01T07:14:50.838Z,100182.47
2019-05-01T07:15:26.721Z,100191.47
2019-05-01T07:16:03.275Z,100188.03
2019-05-01T07:16:39.363Z,100188.06
2019-05-01T07:17:16.372Z,100178.96
2019-05-01T07:17:52.263Z,100189.11
2019-05-01T07:18:29.227Z,100188.66
2019-05-01T07:19:06.914Z,100189.64
2019-05-01T07:20:02.664Z,100191.11
2019-05-01T07:20:53.190Z,100191.02
2019-05-01T07:21:32.655Z,100195.55
2019-05-01T07:22:07.470Z,100195.30
2019-05-01T07:22:44.202Z,100192.94
2019-05-01T07:23:20.556Z,100183.98
2019-05-01T07:23:56.905Z,100191.17
2019-05-01T07:24:32.567Z,100184.05